Página principal
METAR-TAF:

METAR-TAF

Aeroportos :

Islamabad, Paquistão

Aeroporto Internacional Benazir Bhutto

latitude: 33-37N, longitude: 073-06E, altura: 507 m

Observação actual do tempo

O boletim foi feito há 47 minutos, às 23:00 UTC
Vento calmo
Temperatura 10°C
Humidade 71%
Pressão 1015 hPa
Visibilidade: 6000 m

METAR: OPRN 182300Z 00000KT 6000 NSC 10/05 Q1015 NOSIG RMK A2998

Hora: 04:47 (23:47 UTC)

Previsão

O boletim foi feito há 8 horas e 17 minutos, às 15:30 UTC
Previsão válida de 18 às 18 UTC a 19 às 24 UTC
Vento 10 kt de oeste
Visibilidade: 6000 m
Temporariamente
de 19 às 01 UTC a 19 às 05 UTC
Visibilidade: 2000 m
bruma
Tornando-se
de 19 às 07 UTC a 19 às 09 UTC
Visibilidade 10 km ou mais
sem nuvens abaixo de 1500 metros e sem cumulonimbus
Tornando-se
de 19 às 14 UTC a 19 às 16 UTC
Visibilidade: 5000 m
bruma

TAF: OPRN 181530Z 1818/1924 26010KT 6000 NSC TEMPO 1901/1905 2000 HZ BECMG 1907/1909 CAVOK BECMG 1914/1916 5000 HZ NSC

Observações e previsões do tempo de mais de 4000 aeroportos (mensagens METAR e TAF).

As estações disponíveis são os pontos amarelos e vermelhos sobre o mapa.

Mova o rato sobre o mapa para ver o nome da estação.

Depois clique no ponto para visualizar as observações e previsões meteorológicas.

Para alterar o mapa : clique nos botões verdes com uma cruz preta para aumentar o zoom; no botão verde com uma pitada de zoom; ou nas setas verdes para mapas adjacentes.


METAR-TAF: